Flight Track Log - Related Links

Times and Time Zones

All times are in EDT time to prevent confusion due to time zone crossing. See the N779NC flight status page for this flight to view local times or setup timezone preferences in your user account.

Time Position Orientation Groundspeed Altitude Reporting Facility
EDT Latitude Longitude Course Direction KTS MPH feet Rate Location/Type
Sun 08:23:16 PM 33.6500 -84.4667 268° West 175 201 2,200  Level Atlanta TRACON
Sun 08:24:16 PM 33.6667 -84.5333 287° West 256 295 3,800 1,850 Climbing Atlanta TRACON
Sun 08:25:16 PM 33.7000 -84.6167 296° West 269 310 5,900 2,150 Climbing Atlanta TRACON
Sun 08:26:00 PM 33.6931 -84.9512 280° West  Level FlightAware Approximate
Sun 08:26:16 PM 33.7167 -84.7000 284° West 276 318 8,100  Level Atlanta TRACON
Sun 08:27:00 PM 33.7121 -85.0841 280° West  Level FlightAware Approximate
Sun 08:28:00 PM 33.7166 -85.2186 268° West  Level FlightAware Approximate
Sun 08:28:33 PM 33.7117 -84.9428 269° West 306 352 11,200  Level Atlanta Center
Sun 08:29:33 PM 33.7086 -85.0625 268° West 347 399 13,600 2,050 Climbing Atlanta Center
Sun 08:30:33 PM 33.7014 -85.1800 266° West 353 406 15,300 1,650 Climbing Atlanta Center
Sun 08:31:33 PM 33.7022 -85.3072 270° West 366 421 16,900 1,400 Climbing Atlanta Center
Sun 08:32:33 PM 33.6967 -85.4294 267° West 382 440 18,100 1,300 Climbing Atlanta Center
Sun 08:33:33 PM 33.6950 -85.5669 269° West 388 447 19,500 1,300 Climbing Atlanta Center
Sun 08:34:33 PM 33.6953 -85.6992 270° West 400 460 20,700 1,250 Climbing Atlanta Center
Sun 08:35:33 PM 33.6872 -85.8339 266° West 414 476 22,000 1,250 Climbing Atlanta Center
Sun 08:36:33 PM 33.6789 -85.9733 266° West 414 476 23,200 1,250 Climbing Atlanta Center
Sun 08:37:33 PM 33.6683 -86.1131 265° West 421 484 24,500 1,100 Climbing Atlanta Center
Sun 08:38:33 PM 33.6658 -86.2603 269° West 428 493 25,400 900 Climbing Atlanta Center
Sun 08:39:33 PM 33.6694 -86.4025 272° West 428 493 26,300 950 Climbing Atlanta Center
Sun 08:40:33 PM 33.6728 -86.5500 272° West 439 505 27,300 1,100 Climbing Atlanta Center
Sun 08:41:33 PM 33.6758 -86.6972 271° West 439 505 28,500 1,350 Climbing Atlanta Center
Sun 08:42:33 PM 33.6725 -86.8419 268° West 439 505 30,000 750 Climbing Atlanta Center
Sun 08:43:33 PM 33.6819 -86.9844 275° West 439 505 30,000  Level Atlanta Center
Sun 08:46:03 PM 33.7519 -87.3342 284° West 449 517 30,000  Level Memphis Center
Sun 08:47:03 PM 33.7822 -87.4756 284° West 444 511 30,000  Level Memphis Center
Sun 08:48:03 PM 33.8214 -87.6294 287° West 444 511 30,000  Level Memphis Center
Sun 08:49:03 PM 33.8475 -87.7761 282° West 444 511 30,000  Level Memphis Center
Sun 08:50:03 PM 33.8692 -87.9206 280° West 443 510 30,000  Level Memphis Center
Sun 08:51:03 PM 33.8989 -88.0622 284° West 443 510 30,000  Level Memphis Center
Sun 08:52:03 PM 33.9283 -88.1967 285° West 460 529 30,000  Level Memphis Center
Sun 08:53:03 PM 33.9600 -88.3361 285° West 460 529 30,000  Level Memphis Center
Sun 08:54:03 PM 33.9917 -88.4833 285° West 449 517 30,000  Level Memphis Center
Sun 08:55:03 PM 34.0208 -88.6306 283° West 449 517 30,000  Level Memphis Center
Sun 08:56:03 PM 34.0458 -88.7778 282° West 449 517 30,000  Level Memphis Center
Sun 08:57:03 PM 34.0725 -88.9203 283° West 444 511 30,000  Level Memphis Center
Sun 08:58:03 PM 34.0992 -89.0628 283° West 444 511 30,000  Level Memphis Center
Sun 08:59:03 PM 34.1214 -89.2106 280° West 451 519 30,000  Level Memphis Center
Sun 09:00:03 PM 34.1436 -89.3583 280° West 451 519 30,000  Level Memphis Center
Sun 09:01:03 PM 34.1678 -89.5061 281° West 451 519 30,000  Level Memphis Center
Sun 09:02:03 PM 34.1875 -89.6692 278° West 451 519 30,000  Level Memphis Center
Sun 09:03:03 PM 34.2111 -89.8172 281° West 451 519 30,000  Level Memphis Center
Sun 09:04:03 PM 34.2431 -89.9653 285° West 451 519 30,000  Level Memphis Center
Sun 09:05:03 PM 34.2767 -90.1108 286° West 446 513 30,000  Level Memphis Center
Sun 09:06:03 PM 34.3042 -90.2567 283° West 451 519 30,000  Level Memphis Center
Sun 09:07:03 PM 34.3314 -90.4025 283° West 451 519 30,000  Level Memphis Center
Sun 09:08:03 PM 34.3667 -90.5283 289° West 445 512 30,000  Level Memphis Center
Sun 09:09:03 PM 34.3978 -90.6717 285° West 440 506 30,000 -400 Level Memphis Center
Sun 09:10:03 PM 34.4222 -90.8206 281° West 440 506 29,200 -1,750 Descending Memphis Center
Sun 09:11:03 PM 34.4508 -90.9617 284° West 440 506 26,500 -3,150 Descending Memphis Center
Sun 09:12:03 PM 34.4814 -91.1056 284° West 440 506 22,900 -3,600 Descending Memphis Center
Sun 09:13:03 PM 34.5200 -91.2569 287° West 435 501 19,300 -3,650 Descending Memphis Center
Sun 09:14:03 PM 34.5483 -91.3961 284° West 430 495 15,600 -3,400 Descending Memphis Center
Sun 09:15:03 PM 34.5931 -91.5253 293° West 422 486 12,500 -2,650 Descending Memphis Center
Sun 09:16:03 PM 34.6336 -91.6444 292° West 404 465 10,300 -1,563 Descending Memphis Center
Sun 09:16:39 PM 34.6578 -91.7106 294° West 336 387 10,000 -1,133 Descending Memphis Center
Sun 09:17:33 PM 34.6903 -91.7917 296° West 293 337 8,600 -1,429 Descending Memphis Center
Sun 09:18:03 PM 34.7067 -91.8275 299° West 321 369 8,000 -1,869 Descending Memphis Center
Sun 09:18:34 PM 34.7247 -91.8858 291° West 293 337 6,700 -2,242 Descending Memphis Center
Sun 09:19:34 PM 34.7550 -91.9672 294° West 277 319 4,600 -2,087 Descending Memphis Center
Sun 09:20:29 PM 34.7811 -92.0411 293° West 261 300 2,700 -1,551 Descending Memphis Center
Sun 09:21:03 PM 34.7889 -92.0817 283° West 269 310 2,300 -706 Descending Memphis Center

Login

Don't have an account? Register now (free) for customized features, flight alerts, and more!